createdAt,value
2022-07-30T00:02:11.019Z,71.44
2022-07-30T00:04:39.083Z,71.35
2022-07-30T00:07:08.568Z,71.46
2022-07-30T00:09:36.562Z,71.52
2022-07-30T00:12:05.371Z,71.82
2022-07-30T00:14:34.967Z,72.11
2022-07-30T00:17:03.892Z,72.43
2022-07-30T00:19:32.339Z,72.53
2022-07-30T00:22:00.528Z,72.87
2022-07-30T00:24:29.913Z,72.93
2022-07-30T00:26:57.956Z,72.97
2022-07-30T00:29:26.711Z,73.06
2022-07-30T00:31:56.584Z,73.39
2022-07-30T00:34:24.555Z,73.31
2022-07-30T00:36:52.943Z,73.38
2022-07-30T00:39:20.922Z,73.49
2022-07-30T00:41:58.580Z,73.77
2022-07-30T00:44:26.960Z,74.04
2022-07-30T00:46:55.168Z,73.98
2022-07-30T00:49:24.042Z,74.18
2022-07-30T00:51:52.192Z,74.47
2022-07-30T00:54:21.249Z,74.82
2022-07-30T00:56:49.803Z,74.79
2022-07-30T00:59:19.204Z,75.10
2022-07-30T01:01:47.234Z,75.50
2022-07-30T01:04:15.246Z,75.63
2022-07-30T01:06:43.194Z,76.05
2022-07-30T01:09:11.172Z,76.01
2022-07-30T01:11:40.617Z,76.26
2022-07-30T01:14:10.701Z,76.02
2022-07-30T01:16:42.865Z,76.42
2022-07-30T01:19:33.946Z,78.11
2022-07-30T01:22:08.591Z,78.58
2022-07-30T01:24:40.255Z,78.34
2022-07-30T01:27:13.590Z,77.73
2022-07-30T01:29:45.751Z,77.41
2022-07-30T01:32:15.737Z,77.67
2022-07-30T01:34:45.691Z,77.52
2022-07-30T01:37:16.577Z,76.98
2022-07-30T01:39:45.212Z,76.37
2022-07-30T01:42:14.864Z,75.90
2022-07-30T01:44:44.532Z,75.64
2022-07-30T01:47:14.446Z,75.54
2022-07-30T01:49:44.573Z,75.31
2022-07-30T01:52:13.520Z,75.07
2022-07-30T01:54:43.735Z,75.00
2022-07-30T01:57:11.831Z,74.84
2022-07-30T01:59:41.895Z,74.87
2022-07-30T02:02:09.905Z,75.10
2022-07-30T02:04:38.065Z,75.19
2022-07-30T02:07:11.686Z,75.21
2022-07-30T02:09:49.276Z,75.53
2022-07-30T02:12:31.597Z,75.67
2022-07-30T02:15:15.644Z,75.64
2022-07-30T02:17:46.868Z,75.80
2022-07-30T02:20:17.830Z,75.74
2022-07-30T02:22:48.113Z,75.13
2022-07-30T02:25:20.157Z,74.30
2022-07-30T02:27:54.237Z,74.17
2022-07-30T02:30:28.816Z,73.98
2022-07-30T02:33:03.053Z,74.19
2022-07-30T02:35:32.652Z,74.42
2022-07-30T02:38:03.096Z,74.15
2022-07-30T02:40:32.219Z,74.43
2022-07-30T02:43:02.350Z,74.48
2022-07-30T02:45:32.631Z,74.67
2022-07-30T02:48:06.695Z,74.38
2022-07-30T02:50:36.148Z,74.69
2022-07-30T02:53:08.337Z,74.34
2022-07-30T02:55:39.399Z,74.29
2022-07-30T02:58:08.555Z,74.45
2022-07-30T03:00:39.944Z,75.43
2022-07-30T03:03:09.933Z,76.93
2022-07-30T03:05:40.802Z,76.35
2022-07-30T03:08:09.927Z,75.55
2022-07-30T03:10:38.803Z,75.41
2022-07-30T03:13:08.396Z,74.56
2022-07-30T03:15:43.410Z,74.61
2022-07-30T03:18:13.236Z,74.84
2022-07-30T03:20:45.636Z,74.87
2022-07-30T03:23:16.168Z,74.79
2022-07-30T03:25:47.442Z,76.19
2022-07-30T03:28:16.943Z,78.41
2022-07-30T03:30:46.473Z,78.33
2022-07-30T03:33:15.844Z,77.27
2022-07-30T03:35:44.797Z,76.28
2022-07-30T03:38:14.039Z,76.17
2022-07-30T03:40:42.816Z,75.84
2022-07-30T03:43:32.316Z,75.63
2022-07-30T03:46:03.861Z,75.55
2022-07-30T03:48:35.609Z,75.50
2022-07-30T03:51:04.897Z,75.60
2022-07-30T03:53:33.316Z,75.16
2022-07-30T03:56:20.158Z,75.48
2022-07-30T03:59:00.697Z,75.44
2022-07-30T04:01:31.040Z,75.30
2022-07-30T04:04:08.538Z,75.48
2022-07-30T04:06:39.791Z,75.50
2022-07-30T04:09:09.006Z,75.74
2022-07-30T04:11:41.091Z,76.34
2022-07-30T04:14:13.022Z,76.86
2022-07-30T04:16:49.112Z,76.71
2022-07-30T04:19:24.477Z,76.89
2022-07-30T04:21:56.699Z,76.88
2022-07-30T04:24:28.248Z,76.71
2022-07-30T04:27:00.650Z,77.31
2022-07-30T04:29:28.905Z,77.38
2022-07-30T04:31:59.171Z,77.90
2022-07-30T04:34:59.435Z,78.04
2022-07-30T04:38:00.284Z,77.96
2022-07-30T04:40:30.227Z,76.92
2022-07-30T04:42:58.519Z,76.24
2022-07-30T04:45:26.730Z,76.44
2022-07-30T04:47:59.427Z,76.09
2022-07-30T04:50:30.071Z,76.15
2022-07-30T04:52:59.847Z,76.18
2022-07-30T04:55:31.660Z,76.03
2022-07-30T04:58:01.937Z,75.99
2022-07-30T05:00:40.447Z,75.89
2022-07-30T05:03:14.949Z,75.86
2022-07-30T05:05:51.117Z,75.78
2022-07-30T05:08:21.142Z,76.01
2022-07-30T05:10:50.626Z,75.60
2022-07-30T05:13:22.463Z,75.80
2022-07-30T05:15:55.829Z,75.86
2022-07-30T05:18:28.325Z,75.81
2022-07-30T05:20:56.307Z,75.93
2022-07-30T05:23:29.552Z,75.33
2022-07-30T05:26:05.770Z,75.19
2022-07-30T05:28:41.625Z,75.12
2022-07-30T05:31:14.361Z,75.36
2022-07-30T05:33:51.212Z,75.57
2022-07-30T05:36:20.584Z,75.62
2022-07-30T05:38:49.343Z,75.40
2022-07-30T05:41:35.893Z,74.89
2022-07-30T05:44:10.930Z,75.24
2022-07-30T05:46:39.459Z,75.03
2022-07-30T05:49:09.404Z,75.39
2022-07-30T05:51:37.482Z,75.10
2022-07-30T05:54:05.795Z,75.13
2022-07-30T05:56:56.545Z,75.09
2022-07-30T05:59:32.762Z,76.22
2022-07-30T06:02:09.517Z,76.17
2022-07-30T06:04:59.460Z,77.09
2022-07-30T06:07:28.265Z,77.76
2022-07-30T06:10:00.363Z,78.48
2022-07-30T06:12:29.638Z,78.70
2022-07-30T06:14:58.469Z,79.37
2022-07-30T06:17:43.791Z,80.05
2022-07-30T06:20:27.817Z,79.69
2022-07-30T06:23:10.687Z,79.85
2022-07-30T06:25:56.027Z,79.42
2022-07-30T06:28:39.806Z,78.84
2022-07-30T06:31:46.079Z,78.40
2022-07-30T06:34:14.113Z,77.55
2022-07-30T06:36:45.397Z,77.17
2022-07-30T06:39:53.576Z,77.50
2022-07-30T06:42:28.722Z,77.47
2022-07-30T06:45:19.423Z,76.10
2022-07-30T06:48:06.442Z,76.00
2022-07-30T06:50:34.544Z,75.77
2022-07-30T06:53:04.238Z,75.95
2022-07-30T06:55:58.267Z,75.85
2022-07-30T06:58:33.020Z,75.62
2022-07-30T07:01:21.065Z,76.31
2022-07-30T07:03:49.135Z,76.51
2022-07-30T07:06:17.295Z,77.46
2022-07-30T07:08:46.766Z,77.51
2022-07-30T07:11:18.825Z,78.86
2022-07-30T07:13:54.699Z,77.70
2022-07-30T07:16:32.641Z,77.02
2022-07-30T07:19:08.225Z,76.91
2022-07-30T07:21:36.264Z,75.62
2022-07-30T07:24:08.882Z,74.46
2022-07-30T07:26:54.380Z,74.85
2022-07-30T07:29:22.642Z,75.76
2022-07-30T07:32:06.838Z,74.34
2022-07-30T07:34:36.982Z,73.80
2022-07-30T07:37:05.144Z,74.69
2022-07-30T07:39:34.449Z,74.71
2022-07-30T07:42:02.635Z,73.64
2022-07-30T07:44:31.862Z,73.02
2022-07-30T07:47:00.154Z,71.87
2022-07-30T07:49:33.480Z,71.97
2022-07-30T07:52:02.809Z,71.08
2022-07-30T07:54:30.773Z,70.63
2022-07-30T07:57:02.326Z,69.98
2022-07-30T07:59:40.718Z,69.46
2022-07-30T08:02:24.644Z,68.04
2022-07-30T08:05:10.591Z,65.53
2022-07-30T08:08:00.725Z,64.36
2022-07-30T08:10:41.056Z,63.96
2022-07-30T08:13:48.145Z,58.72
2022-07-30T08:16:36.005Z,57.52
2022-07-30T08:19:35.827Z,55.97
2022-07-30T08:22:18.305Z,53.61
2022-07-30T08:24:46.370Z,53.25
2022-07-30T08:27:14.344Z,52.03
2022-07-30T08:29:44.969Z,51.35
2022-07-30T08:32:13.020Z,50.73
2022-07-30T08:34:42.154Z,50.24
2022-07-30T08:37:10.292Z,49.83
2022-07-30T08:39:42.639Z,49.51
2022-07-30T08:42:11.112Z,48.58
2022-07-30T08:44:39.902Z,49.07
2022-07-30T08:47:12.154Z,47.91
2022-07-30T08:50:19.487Z,47.82
2022-07-30T08:53:14.283Z,47.42
2022-07-30T08:55:42.704Z,47.11
2022-07-30T08:58:23.276Z,46.50
2022-07-30T09:00:51.428Z,46.81
2022-07-30T09:03:22.556Z,46.28
2022-07-30T09:05:51.126Z,44.73
2022-07-30T09:08:19.987Z,44.76
2022-07-30T09:10:52.901Z,43.91
2022-07-30T09:13:26.596Z,44.24
2022-07-30T09:15:55.854Z,44.35
2022-07-30T09:18:31.443Z,44.10
2022-07-30T09:21:00.910Z,45.26
2022-07-30T09:23:29.509Z,43.89
2022-07-30T09:26:26.756Z,43.93
2022-07-30T09:29:17.220Z,43.17
2022-07-30T09:32:06.489Z,42.58
2022-07-30T09:34:56.206Z,42.67
2022-07-30T09:38:04.567Z,41.39
2022-07-30T09:40:57.579Z,42.67
2022-07-30T09:43:46.048Z,42.41
2022-07-30T09:46:21.974Z,42.35
2022-07-30T09:48:51.690Z,39.99
2022-07-30T09:51:54.626Z,39.92
2022-07-30T09:54:26.722Z,40.93
2022-07-30T09:57:22.627Z,39.81
2022-07-30T09:59:57.491Z,40.49
2022-07-30T10:02:33.462Z,39.15
2022-07-30T10:05:15.472Z,39.87
2022-07-30T10:07:54.553Z,38.95
2022-07-30T10:10:25.769Z,39.48
2022-07-30T10:12:59.082Z,38.95
2022-07-30T10:15:32.474Z,39.28
2022-07-30T10:18:02.039Z,38.99
2022-07-30T10:20:49.780Z,38.89
2022-07-30T10:23:53.904Z,37.97
2022-07-30T10:26:40.946Z,37.46
2022-07-30T10:29:33.826Z,36.96
2022-07-30T10:32:03.197Z,37.32
2022-07-30T10:34:34.410Z,37.45
2022-07-30T10:37:07.478Z,36.44
2022-07-30T10:39:40.534Z,37.26
2022-07-30T10:42:25.808Z,36.91
2022-07-30T10:45:17.437Z,37.68
2022-07-30T10:47:49.356Z,37.49
2022-07-30T10:50:22.265Z,37.25
2022-07-30T10:52:53.488Z,36.76
2022-07-30T10:55:37.332Z,36.75
2022-07-30T10:58:09.303Z,36.39
2022-07-30T11:01:00.666Z,35.73
2022-07-30T11:03:41.218Z,36.07
2022-07-30T11:06:27.981Z,33.67
2022-07-30T11:08:56.943Z,35.51
2022-07-30T11:12:16.123Z,33.22
2022-07-30T11:15:06.145Z,32.17
2022-07-30T11:18:05.108Z,30.21
2022-07-30T11:20:47.685Z,32.89
2022-07-30T11:23:40.680Z,31.52
2022-07-30T11:26:14.190Z,32.42
2022-07-30T11:28:49.234Z,31.97
2022-07-30T11:31:30.627Z,31.47
2022-07-30T11:34:30.972Z,32.29
2022-07-30T11:37:19.226Z,31.66
2022-07-30T11:40:11.115Z,31.48
2022-07-30T11:42:42.150Z,32.65
2022-07-30T11:45:30.278Z,32.34
2022-07-30T11:48:01.299Z,32.01
2022-07-30T11:50:32.201Z,32.41
2022-07-30T11:53:01.943Z,31.94
2022-07-30T11:55:32.823Z,31.76
2022-07-30T11:58:02.461Z,31.86
2022-07-30T12:00:38.078Z,31.22
2022-07-30T12:03:13.792Z,30.98
2022-07-30T12:05:42.140Z,31.70
2022-07-30T12:08:35.429Z,31.35
2022-07-30T12:11:01.130Z,31.88
2022-07-30T12:13:43.927Z,31.71
2022-07-30T12:16:17.602Z,31.15
2022-07-30T12:18:46.621Z,31.96
2022-07-30T12:21:16.175Z,31.63
2022-07-30T12:23:44.875Z,31.69
2022-07-30T12:26:22.457Z,31.65
2022-07-30T12:28:50.977Z,31.19
2022-07-30T12:31:20.523Z,31.20
2022-07-30T12:33:48.646Z,30.61
2022-07-30T12:36:26.581Z,30.89
2022-07-30T12:38:54.775Z,31.45
2022-07-30T12:41:23.199Z,31.35
2022-07-30T12:43:53.169Z,31.25
2022-07-30T12:46:24.484Z,31.28
2022-07-30T12:48:54.715Z,31.15
2022-07-30T12:51:24.749Z,31.02
2022-07-30T12:53:55.454Z,31.23
2022-07-30T12:56:24.901Z,30.80
2022-07-30T12:58:54.034Z,31.46
2022-07-30T13:01:44.746Z,30.19
2022-07-30T13:04:14.590Z,31.15
2022-07-30T13:06:43.550Z,31.90
2022-07-30T13:09:20.339Z,30.92
2022-07-30T13:11:51.296Z,31.35
2022-07-30T13:14:19.378Z,30.62
2022-07-30T13:16:55.646Z,30.95
2022-07-30T13:19:23.843Z,30.03
2022-07-30T13:21:52.023Z,29.82
2022-07-30T13:24:20.393Z,29.04
2022-07-30T13:27:01.316Z,29.51
2022-07-30T13:29:29.381Z,30.11
2022-07-30T13:31:58.803Z,30.10
2022-07-30T13:34:26.862Z,30.32
2022-07-30T13:36:54.901Z,31.80
2022-07-30T13:39:22.857Z,31.47
2022-07-30T13:41:50.878Z,31.56
2022-07-30T13:44:18.887Z,31.27
2022-07-30T13:46:47.460Z,31.37
2022-07-30T13:49:16.841Z,31.94
2022-07-30T13:51:45.299Z,31.80
2022-07-30T13:54:14.008Z,30.26
2022-07-30T13:56:42.118Z,30.51
2022-07-30T13:59:10.948Z,30.89
2022-07-30T14:01:39.381Z,30.88
2022-07-30T14:04:08.422Z,31.47
2022-07-30T14:06:37.819Z,30.60
2022-07-30T14:09:06.124Z,30.83
2022-07-30T14:11:34.134Z,30.65
2022-07-30T14:14:02.104Z,29.99
2022-07-30T14:16:44.709Z,29.35
2022-07-30T14:19:23.550Z,29.39
2022-07-30T14:21:54.320Z,29.53
2022-07-30T14:24:23.463Z,29.68
2022-07-30T14:26:57.339Z,30.39
2022-07-30T14:29:26.505Z,30.29
2022-07-30T14:31:55.073Z,30.34
2022-07-30T14:34:23.077Z,29.75
2022-07-30T14:36:51.141Z,30.12
2022-07-30T14:39:20.958Z,29.30
2022-07-30T14:41:54.062Z,29.75
2022-07-30T14:44:24.423Z,29.21
2022-07-30T14:46:53.020Z,29.00
2022-07-30T14:49:21.697Z,28.37
2022-07-30T14:51:51.150Z,28.60
2022-07-30T14:54:20.873Z,29.28
2022-07-30T14:56:49.248Z,28.73
2022-07-30T14:59:18.069Z,29.14
2022-07-30T15:01:48.214Z,28.73
2022-07-30T15:04:16.890Z,28.34
2022-07-30T15:06:45.228Z,28.79
2022-07-30T15:09:13.846Z,28.85
2022-07-30T15:12:07.608Z,29.47
2022-07-30T15:14:31.706Z,29.11
2022-07-30T15:17:04.269Z,28.82
2022-07-30T15:19:33.287Z,28.70
2022-07-30T15:22:03.530Z,28.52
2022-07-30T15:24:32.291Z,28.51
2022-07-30T15:27:02.053Z,28.63
2022-07-30T15:29:31.045Z,28.82
2022-07-30T15:32:01.211Z,29.02
2022-07-30T15:34:34.655Z,28.69
2022-07-30T15:37:03.563Z,28.87
2022-07-30T15:39:34.399Z,28.74
2022-07-30T15:42:06.572Z,28.27
2022-07-30T15:44:35.346Z,29.26
2022-07-30T15:47:03.537Z,28.30
2022-07-30T15:49:32.519Z,27.93
2022-07-30T15:52:01.736Z,29.26
2022-07-30T15:54:30.370Z,28.70
2022-07-30T15:57:01.052Z,28.60
2022-07-30T15:59:31.953Z,28.55
2022-07-30T16:02:00.740Z,28.37
2022-07-30T16:04:31.981Z,28.75
2022-07-30T16:07:00.851Z,28.79
2022-07-30T16:09:28.942Z,28.40
2022-07-30T16:11:57.109Z,27.85
2022-07-30T16:14:26.359Z,27.85
2022-07-30T16:16:56.201Z,27.28
2022-07-30T16:19:24.533Z,27.26
2022-07-30T16:21:53.264Z,27.35
2022-07-30T16:24:21.724Z,27.63
2022-07-30T16:26:50.733Z,27.79
2022-07-30T16:29:19.028Z,27.97
2022-07-30T16:31:47.432Z,28.71
2022-07-30T16:34:17.187Z,28.73
2022-07-30T16:36:54.689Z,28.74
2022-07-30T16:39:23.221Z,28.67
2022-07-30T16:41:51.293Z,28.41
2022-07-30T16:44:19.223Z,28.53
2022-07-30T16:46:48.116Z,28.83
2022-07-30T16:49:17.782Z,28.97
2022-07-30T16:51:45.794Z,28.76
2022-07-30T16:54:13.839Z,28.12
2022-07-30T16:56:42.581Z,28.41
2022-07-30T16:59:13.776Z,27.90
2022-07-30T17:01:42.095Z,27.89
2022-07-30T17:04:10.082Z,28.10
2022-07-30T17:06:40.139Z,28.04
2022-07-30T17:09:08.377Z,28.67
2022-07-30T17:11:47.337Z,27.89
2022-07-30T17:14:22.216Z,28.03
2022-07-30T17:16:50.553Z,27.99
2022-07-30T17:19:18.550Z,28.02
2022-07-30T17:21:47.904Z,28.04
2022-07-30T17:24:15.948Z,28.04
2022-07-30T17:26:44.861Z,28.11
2022-07-30T17:29:15.269Z,28.64
2022-07-30T17:31:44.577Z,28.90
2022-07-30T17:34:14.300Z,28.42
2022-07-30T17:36:44.353Z,28.59
2022-07-30T17:40:18.701Z,28.50
2022-07-30T17:42:10.445Z,27.92
2022-07-30T17:44:39.322Z,28.34
2022-07-30T17:47:12.360Z,28.20
2022-07-30T17:49:42.748Z,28.10
2022-07-30T17:52:10.676Z,28.20
2022-07-30T17:54:40.476Z,28.01
2022-07-30T17:57:08.492Z,27.87
2022-07-30T17:59:36.511Z,28.01
2022-07-30T18:02:05.209Z,28.09
2022-07-30T18:04:34.240Z,28.67
2022-07-30T18:07:02.280Z,29.17
2022-07-30T18:09:38.086Z,29.01
2022-07-30T18:12:09.958Z,29.25
2022-07-30T18:14:38.682Z,29.24
2022-07-30T18:17:09.087Z,29.59
2022-07-30T18:19:39.233Z,29.92
2022-07-30T18:22:09.028Z,29.33
2022-07-30T18:24:40.525Z,29.33
2022-07-30T18:27:13.359Z,29.99
2022-07-30T18:29:41.365Z,29.75
2022-07-30T18:32:09.579Z,29.82
2022-07-30T18:34:37.560Z,29.41
2022-07-30T18:37:05.705Z,29.63
2022-07-30T18:39:33.664Z,29.53
2022-07-30T18:42:02.420Z,29.92
2022-07-30T18:44:32.423Z,30.92
2022-07-30T18:47:00.417Z,30.88
2022-07-30T18:49:37.564Z,31.59
2022-07-30T18:52:07.846Z,31.66
2022-07-30T18:54:36.881Z,31.76
2022-07-30T18:57:05.368Z,32.34
2022-07-30T18:59:35.003Z,32.04
2022-07-30T19:02:04.806Z,32.19
2022-07-30T19:04:33.079Z,32.56
2022-07-30T19:07:01.027Z,33.14
2022-07-30T19:09:28.994Z,33.33
2022-07-30T19:11:56.959Z,33.59
2022-07-30T19:14:24.953Z,33.90
2022-07-30T19:16:54.476Z,34.04
2022-07-30T19:19:27.539Z,33.44
2022-07-30T19:21:55.527Z,34.32
2022-07-30T19:24:23.846Z,33.98
2022-07-30T19:26:56.130Z,34.10
2022-07-30T19:29:24.151Z,34.13
2022-07-30T19:31:52.165Z,34.11
2022-07-30T19:34:21.519Z,34.10
2022-07-30T19:36:49.468Z,34.11
2022-07-30T19:39:21.590Z,34.37
2022-07-30T19:41:50.770Z,34.53
2022-07-30T19:44:19.671Z,34.35
2022-07-30T19:46:48.690Z,34.26
2022-07-30T19:49:19.890Z,34.42
2022-07-30T19:52:10.477Z,34.42
2022-07-30T19:54:39.530Z,34.61
2022-07-30T19:57:07.567Z,34.56
2022-07-30T19:59:45.229Z,34.62
2022-07-30T20:02:23.618Z,35.06
2022-07-30T20:04:51.703Z,35.04
2022-07-30T20:07:21.116Z,35.15
2022-07-30T20:09:49.224Z,35.04
2022-07-30T20:12:17.567Z,35.10
2022-07-30T20:14:46.008Z,35.16
2022-07-30T20:17:14.505Z,35.21
2022-07-30T20:19:47.967Z,35.63
2022-07-30T20:22:17.362Z,35.73
2022-07-30T20:24:48.998Z,35.68
2022-07-30T20:27:35.343Z,36.00
2022-07-30T20:30:06.211Z,36.31
2022-07-30T20:32:35.341Z,36.11
2022-07-30T20:35:04.688Z,36.60
2022-07-30T20:37:33.247Z,36.52
2022-07-30T20:40:11.427Z,36.25
2022-07-30T20:42:42.676Z,36.50
2022-07-30T20:45:12.332Z,36.55
2022-07-30T20:47:41.339Z,36.60
2022-07-30T20:50:10.883Z,36.77
2022-07-30T20:52:40.520Z,37.42
2022-07-30T20:55:14.366Z,37.69
2022-07-30T20:58:00.320Z,37.78
2022-07-30T21:00:32.558Z,37.49
2022-07-30T21:03:03.390Z,37.72
2022-07-30T21:05:31.721Z,37.61
2022-07-30T21:08:00.809Z,38.19
2022-07-30T21:10:30.296Z,38.11
2022-07-30T21:13:03.718Z,38.19
2022-07-30T21:15:36.214Z,37.88
2022-07-30T21:18:13.983Z,38.21
2022-07-30T21:20:41.890Z,38.16
2022-07-30T21:23:20.785Z,38.66
2022-07-30T21:26:01.971Z,38.66
2022-07-30T21:28:35.124Z,39.17
2022-07-30T21:31:04.080Z,39.04
2022-07-30T21:33:35.848Z,39.12
2022-07-30T21:36:03.893Z,38.96
2022-07-30T21:38:34.496Z,39.05
2022-07-30T21:41:04.137Z,39.38
2022-07-30T21:43:39.056Z,39.64
2022-07-30T21:46:07.218Z,39.41
2022-07-30T21:48:39.662Z,39.73
2022-07-30T21:51:09.539Z,39.44
2022-07-30T21:53:45.135Z,39.84
2022-07-30T21:56:16.751Z,39.81
2022-07-30T21:58:45.478Z,40.22
2022-07-30T22:01:21.700Z,39.98
2022-07-30T22:04:01.653Z,40.16
2022-07-30T22:06:35.302Z,40.19
2022-07-30T22:09:08.555Z,40.25
2022-07-30T22:11:52.964Z,40.44
2022-07-30T22:14:20.979Z,41.04
2022-07-30T22:16:49.000Z,40.89
2022-07-30T22:19:17.314Z,41.05
2022-07-30T22:21:46.705Z,40.82
2022-07-30T22:24:33.627Z,41.13
2022-07-30T22:27:10.713Z,41.41
2022-07-30T22:29:51.121Z,41.26
2022-07-30T22:32:23.964Z,41.40
2022-07-30T22:34:52.033Z,41.71
2022-07-30T22:37:21.522Z,41.54
2022-07-30T22:39:50.164Z,41.44
2022-07-30T22:42:24.583Z,41.65
2022-07-30T22:44:55.510Z,41.95
2022-07-30T22:47:51.259Z,41.98
2022-07-30T22:50:15.026Z,42.01
2022-07-30T22:52:53.518Z,41.89
2022-07-30T22:55:28.301Z,41.73
2022-07-30T22:57:59.105Z,41.88
2022-07-30T23:00:28.584Z,41.60
2022-07-30T23:02:57.756Z,41.53
2022-07-30T23:05:26.251Z,41.29
2022-07-30T23:07:54.400Z,41.40
2022-07-30T23:10:24.916Z,41.55
2022-07-30T23:12:56.342Z,42.23
2022-07-30T23:15:25.967Z,42.15
2022-07-30T23:17:54.238Z,42.39
2022-07-30T23:20:22.834Z,43.00
2022-07-30T23:22:51.184Z,42.80
2022-07-30T23:25:19.698Z,43.05
2022-07-30T23:27:48.021Z,43.37
2022-07-30T23:30:16.174Z,43.13
2022-07-30T23:32:45.702Z,43.24
2022-07-30T23:35:13.637Z,43.78
2022-07-30T23:37:48.997Z,43.47
2022-07-30T23:40:18.442Z,43.39
2022-07-30T23:42:46.727Z,43.84
2022-07-30T23:45:14.907Z,44.06
2022-07-30T23:47:55.961Z,44.50
2022-07-30T23:50:32.763Z,44.55
2022-07-30T23:53:01.402Z,44.08
2022-07-30T23:55:29.872Z,44.49
2022-07-30T23:57:58.133Z,44.57
